createdAt,value
2019-01-31T00:02:21.234Z,23.50
2019-01-31T00:05:12.880Z,25.00
2019-01-31T00:08:16.144Z,24.13
2019-01-31T00:10:52.580Z,24.03
2019-01-31T00:13:34.917Z,21.30
2019-01-31T00:16:55.322Z,21.13
2019-01-31T00:19:46.482Z,24.60
2019-01-31T00:22:42.326Z,28.27
2019-01-31T00:25:30.685Z,26.43
2019-01-31T00:28:24.950Z,23.00
2019-01-31T00:31:27.968Z,27.90
2019-01-31T00:34:39.447Z,21.53
2019-01-31T00:37:24.809Z,26.40
2019-01-31T00:40:23.586Z,22.67
2019-01-31T00:43:12.442Z,27.03
2019-01-31T00:46:16.059Z,26.53
2019-01-31T00:49:07.130Z,23.60
2019-01-31T00:51:49.511Z,21.53
2019-01-31T00:55:00.888Z,30.40
2019-01-31T00:57:58.629Z,27.93
2019-01-31T01:00:49.696Z,24.23
2019-01-31T01:03:32.107Z,25.60
2019-01-31T01:06:20.669Z,22.03
2019-01-31T01:09:07.777Z,26.43
2019-01-31T01:12:10.878Z,25.13
2019-01-31T01:15:11.616Z,23.97
2019-01-31T01:17:48.161Z,25.07
2019-01-31T01:20:33.586Z,23.93
2019-01-31T01:23:40.201Z,32.37
2019-01-31T01:26:27.864Z,25.40
2019-01-31T01:29:23.910Z,24.83
2019-01-31T01:32:00.398Z,25.43
2019-01-31T01:35:00.941Z,27.37
2019-01-31T01:38:04.310Z,29.83
2019-01-31T01:40:55.594Z,25.00
2019-01-31T01:44:12.155Z,25.50
2019-01-31T01:46:57.788Z,24.50
2019-01-31T01:49:49.259Z,26.40
2019-01-31T01:52:46.574Z,28.60
2019-01-31T01:55:42.786Z,29.40
2019-01-31T01:58:25.006Z,26.90
2019-01-31T02:01:10.125Z,27.43
2019-01-31T02:04:04.872Z,25.07
2019-01-31T02:06:50.172Z,27.90
2019-01-31T02:09:44.511Z,29.70
2019-01-31T02:12:38.236Z,29.47
2019-01-31T02:15:23.325Z,26.73
2019-01-31T02:18:11.141Z,27.13
2019-01-31T02:20:59.601Z,29.03
2019-01-31T02:23:36.075Z,28.97
2019-01-31T02:26:34.461Z,25.53
2019-01-31T02:29:19.500Z,28.23
2019-01-31T02:32:14.334Z,29.33
2019-01-31T02:35:02.592Z,28.10
2019-01-31T02:37:39.328Z,27.00
2019-01-31T02:40:30.891Z,26.77
2019-01-31T02:43:26.878Z,28.27
2019-01-31T02:46:17.807Z,19.73
2019-01-31T02:49:12.592Z,26.03
2019-01-31T02:52:03.861Z,27.87
2019-01-31T02:54:52.066Z,26.83
2019-01-31T02:58:09.637Z,29.33
2019-01-31T03:00:52.064Z,31.50
2019-01-31T03:03:43.534Z,26.87
2019-01-31T03:06:37.857Z,25.43
2019-01-31T03:09:34.128Z,25.20
2019-01-31T03:12:30.902Z,25.13
2019-01-31T03:15:22.767Z,25.23
2019-01-31T03:18:17.434Z,25.40
2019-01-31T03:21:08.991Z,25.20
2019-01-31T03:24:20.375Z,24.33
2019-01-31T03:27:02.591Z,24.43
2019-01-31T03:30:01.454Z,27.47
2019-01-31T03:32:46.633Z,28.77
2019-01-31T03:35:28.720Z,27.47
2019-01-31T03:38:26.349Z,28.87
2019-01-31T03:41:23.906Z,29.47
2019-01-31T03:44:11.512Z,26.07
2019-01-31T03:46:50.675Z,24.20
2019-01-31T03:49:35.667Z,27.83
2019-01-31T03:52:12.252Z,24.80
2019-01-31T03:55:17.638Z,27.40
2019-01-31T03:58:15.176Z,27.47
2019-01-31T04:01:24.882Z,29.80
2019-01-31T04:04:16.506Z,25.27
2019-01-31T04:06:48.211Z,28.70
2019-01-31T04:09:19.923Z,30.20
2019-01-31T04:11:51.600Z,27.77
2019-01-31T04:14:23.291Z,29.57
2019-01-31T04:16:55.137Z,30.07
2019-01-31T04:19:26.807Z,27.03
2019-01-31T04:21:58.386Z,28.50
2019-01-31T04:24:30.226Z,30.03
2019-01-31T04:27:01.880Z,33.93
2019-01-31T04:29:33.587Z,30.97
2019-01-31T04:32:05.289Z,33.13
2019-01-31T04:34:36.882Z,29.97
2019-01-31T04:37:08.448Z,30.13
2019-01-31T04:39:40.141Z,28.63
2019-01-31T04:42:11.758Z,30.43
2019-01-31T04:44:43.756Z,29.60
2019-01-31T04:47:15.397Z,29.07
2019-01-31T04:49:47.032Z,32.20
2019-01-31T04:52:18.672Z,28.50
2019-01-31T04:54:50.264Z,32.50
2019-01-31T04:57:21.945Z,31.63
2019-01-31T04:59:53.559Z,30.97
2019-01-31T05:02:25.251Z,29.50
2019-01-31T05:04:56.947Z,32.93
2019-01-31T05:07:28.598Z,31.10
2019-01-31T05:10:00.508Z,29.10
2019-01-31T05:12:32.123Z,38.27
2019-01-31T05:15:04.059Z,32.67
2019-01-31T05:17:35.706Z,32.77
2019-01-31T05:20:12.247Z,31.17
2019-01-31T05:22:43.935Z,30.37
2019-01-31T05:25:18.522Z,28.50
2019-01-31T05:27:51.853Z,39.80
2019-01-31T05:30:24.313Z,38.80
2019-01-31T05:32:58.942Z,39.37
2019-01-31T05:35:29.914Z,35.30
2019-01-31T05:38:01.591Z,37.23
2019-01-31T05:40:33.290Z,31.57
2019-01-31T05:43:05.243Z,34.03
2019-01-31T05:45:36.839Z,36.40
2019-01-31T05:48:09.076Z,36.90
2019-01-31T05:50:40.678Z,38.57
2019-01-31T05:53:13.081Z,35.80
2019-01-31T05:55:45.871Z,30.50
2019-01-31T05:58:17.958Z,27.07
2019-01-31T06:00:49.757Z,34.83
2019-01-31T06:03:24.772Z,35.73
2019-01-31T06:05:56.741Z,31.50
2019-01-31T06:08:29.364Z,29.17
2019-01-31T06:11:07.647Z,33.47
2019-01-31T06:13:34.562Z,28.80
2019-01-31T06:16:06.984Z,31.50
2019-01-31T06:18:38.848Z,37.03
2019-01-31T06:21:13.677Z,40.17
2019-01-31T06:23:44.370Z,30.03
2019-01-31T06:26:15.984Z,40.50
2019-01-31T06:28:47.652Z,29.53
2019-01-31T06:31:19.270Z,31.80
2019-01-31T06:33:50.989Z,37.43
2019-01-31T06:36:24.064Z,33.00
2019-01-31T06:38:55.714Z,32.87
2019-01-31T06:41:27.476Z,28.50
2019-01-31T06:43:59.143Z,31.53
2019-01-31T06:46:30.854Z,29.27
2019-01-31T06:49:02.450Z,29.60
2019-01-31T06:51:34.108Z,32.63
2019-01-31T06:54:07.789Z,32.43
2019-01-31T06:56:39.620Z,29.63
2019-01-31T06:59:11.288Z,28.00
2019-01-31T07:01:42.932Z,30.23
2019-01-31T07:04:14.479Z,25.67
2019-01-31T07:06:46.031Z,34.23
2019-01-31T07:09:17.622Z,30.67
2019-01-31T07:11:49.322Z,26.30
2019-01-31T07:14:20.949Z,37.80
2019-01-31T07:16:52.538Z,30.63
2019-01-31T07:19:24.205Z,29.00
2019-01-31T07:21:55.797Z,30.47
2019-01-31T07:24:27.438Z,34.60
2019-01-31T07:26:59.039Z,31.07
2019-01-31T07:29:30.721Z,32.67
2019-01-31T07:32:03.672Z,33.50
2019-01-31T07:34:35.490Z,27.70
2019-01-31T07:37:07.174Z,29.30
2019-01-31T07:39:41.976Z,32.03
2019-01-31T07:42:13.695Z,34.23
2019-01-31T07:44:45.360Z,35.30
2019-01-31T07:47:17.048Z,37.00
2019-01-31T07:49:48.672Z,36.57
2019-01-31T07:52:20.318Z,26.67
2019-01-31T07:54:51.888Z,35.63
2019-01-31T07:57:23.634Z,31.33
2019-01-31T07:59:55.378Z,33.83
2019-01-31T08:02:27.117Z,33.70
2019-01-31T08:04:58.778Z,38.33
2019-01-31T08:07:30.348Z,38.27
2019-01-31T08:10:01.912Z,39.37
2019-01-31T08:12:34.683Z,31.07
2019-01-31T08:15:11.341Z,33.27
2019-01-31T08:17:43.000Z,32.97
2019-01-31T08:20:21.495Z,36.23
2019-01-31T08:22:53.180Z,35.23
2019-01-31T08:25:25.700Z,41.23
2019-01-31T08:27:57.323Z,30.97
2019-01-31T08:30:38.925Z,31.13
2019-01-31T08:33:10.543Z,33.60
2019-01-31T08:35:42.113Z,31.83
2019-01-31T08:38:13.715Z,36.97
2019-01-31T08:40:45.300Z,32.63
2019-01-31T08:43:16.978Z,30.47
2019-01-31T08:45:48.616Z,42.00
2019-01-31T08:48:20.176Z,34.47
2019-01-31T08:50:51.862Z,32.23
2019-01-31T08:53:23.524Z,35.63
2019-01-31T08:55:55.256Z,36.37
2019-01-31T08:58:26.959Z,39.13
2019-01-31T09:00:58.698Z,38.47
2019-01-31T09:03:31.314Z,32.97
2019-01-31T09:06:02.895Z,36.33
2019-01-31T09:08:34.742Z,33.80
2019-01-31T09:11:09.966Z,36.43
2019-01-31T09:13:41.665Z,38.20
2019-01-31T09:16:13.404Z,36.23
2019-01-31T09:18:45.316Z,32.50
2019-01-31T09:21:27.672Z,35.20
2019-01-31T09:24:15.840Z,39.80
2019-01-31T09:27:06.729Z,43.33
2019-01-31T09:30:13.406Z,52.37
2019-01-31T09:33:21.452Z,52.33
2019-01-31T09:36:13.063Z,39.10
2019-01-31T09:39:13.237Z,46.23
2019-01-31T09:42:04.685Z,34.87
2019-01-31T09:45:09.699Z,35.67
2019-01-31T09:48:00.903Z,42.30
2019-01-31T09:51:07.300Z,39.10
2019-01-31T09:53:52.850Z,34.57
2019-01-31T09:56:38.124Z,49.33
2019-01-31T09:59:20.557Z,36.30
2019-01-31T10:02:24.254Z,38.87
2019-01-31T10:05:00.865Z,34.57
2019-01-31T10:07:53.906Z,47.10
2019-01-31T10:10:56.008Z,41.83
2019-01-31T10:13:44.662Z,35.57
2019-01-31T10:16:43.569Z,41.50
2019-01-31T10:19:26.068Z,36.57
2019-01-31T10:22:22.177Z,42.20
2019-01-31T10:25:19.186Z,40.83
2019-01-31T10:28:16.463Z,38.43
2019-01-31T10:31:12.201Z,35.53
2019-01-31T10:33:57.456Z,38.77
2019-01-31T10:36:37.100Z,42.27
2019-01-31T10:39:37.948Z,36.13
2019-01-31T10:42:20.415Z,43.33
2019-01-31T10:45:25.790Z,37.10
2019-01-31T10:48:33.909Z,40.97
2019-01-31T10:51:10.477Z,36.17
2019-01-31T10:54:07.694Z,40.70
2019-01-31T10:56:58.583Z,33.37
2019-01-31T10:59:57.569Z,36.47
2019-01-31T11:03:13.356Z,35.50
2019-01-31T11:06:01.994Z,38.10
2019-01-31T11:08:47.292Z,38.23
2019-01-31T11:11:30.307Z,38.07
2019-01-31T11:14:12.583Z,40.50
2019-01-31T11:17:16.013Z,39.73
2019-01-31T11:19:55.480Z,38.30
2019-01-31T11:22:56.248Z,32.20
2019-01-31T11:25:56.540Z,31.73
2019-01-31T11:28:41.539Z,33.23
2019-01-31T11:31:45.223Z,31.37
2019-01-31T11:34:33.085Z,29.83
2019-01-31T11:37:17.250Z,34.63
2019-01-31T11:40:11.553Z,32.00
2019-01-31T11:43:11.871Z,27.87
2019-01-31T11:46:14.494Z,33.83
2019-01-31T11:49:05.650Z,32.70
2019-01-31T11:52:09.137Z,36.07
2019-01-31T11:55:04.780Z,28.97
2019-01-31T11:58:01.640Z,26.37
2019-01-31T12:00:33.876Z,30.83
2019-01-31T12:03:05.573Z,27.43
2019-01-31T12:05:37.273Z,34.57
2019-01-31T12:08:08.956Z,30.30
2019-01-31T12:10:40.545Z,30.77
2019-01-31T12:13:22.718Z,30.27
2019-01-31T12:15:45.455Z,28.50
2019-01-31T12:18:17.026Z,28.43
2019-01-31T12:20:48.577Z,24.60
2019-01-31T12:23:20.235Z,26.37
2019-01-31T12:25:51.913Z,24.63
2019-01-31T12:28:23.551Z,24.90
2019-01-31T12:30:55.296Z,23.20
2019-01-31T12:33:27.003Z,24.37
2019-01-31T12:35:58.627Z,24.97
2019-01-31T12:38:36.790Z,25.37
2019-01-31T12:41:04.892Z,28.00
2019-01-31T12:43:36.595Z,25.23
2019-01-31T12:46:08.294Z,25.57
2019-01-31T12:48:40.008Z,22.57
2019-01-31T12:51:11.586Z,24.83
2019-01-31T12:53:43.159Z,26.67
2019-01-31T12:56:14.875Z,29.53
2019-01-31T12:58:46.448Z,25.77
2019-01-31T13:01:18.173Z,23.13
2019-01-31T13:03:49.761Z,24.10
2019-01-31T13:06:21.423Z,28.87
2019-01-31T13:08:53.948Z,27.83
2019-01-31T13:11:31.888Z,26.23
2019-01-31T13:14:03.906Z,35.77
2019-01-31T13:16:39.948Z,31.17
2019-01-31T13:19:12.791Z,23.37
2019-01-31T13:21:44.371Z,25.00
2019-01-31T13:24:16.018Z,27.43
2019-01-31T13:26:47.644Z,30.63
2019-01-31T13:29:19.197Z,36.93
2019-01-31T13:31:50.815Z,37.97
2019-01-31T13:34:22.427Z,34.53
2019-01-31T13:36:54.083Z,33.80
2019-01-31T13:39:25.730Z,37.00
2019-01-31T13:41:57.361Z,35.07
2019-01-31T13:44:31.274Z,38.03
2019-01-31T13:47:03.033Z,37.37
2019-01-31T13:49:36.832Z,35.47
2019-01-31T13:52:12.024Z,39.67
2019-01-31T13:54:43.686Z,36.17
2019-01-31T13:57:15.325Z,38.07
2019-01-31T13:59:47.084Z,47.43
2019-01-31T14:02:18.797Z,47.17
2019-01-31T14:04:50.399Z,41.40
2019-01-31T14:07:27.580Z,45.53
2019-01-31T14:09:58.828Z,43.90
2019-01-31T14:12:31.922Z,39.87
2019-01-31T14:15:04.612Z,45.97
2019-01-31T14:17:36.254Z,44.80
2019-01-31T14:20:12.719Z,43.93
2019-01-31T14:22:44.363Z,49.07
2019-01-31T14:25:16.065Z,51.10
2019-01-31T14:27:50.027Z,58.27
2019-01-31T14:30:38.340Z,42.77
2019-01-31T14:33:11.664Z,54.77
2019-01-31T14:35:43.302Z,52.37
2019-01-31T14:38:14.913Z,70.40
2019-01-31T14:40:46.591Z,56.63
2019-01-31T14:43:18.456Z,48.03
2019-01-31T14:45:50.111Z,45.93
2019-01-31T14:48:22.745Z,45.97
2019-01-31T14:50:55.503Z,45.57
2019-01-31T14:53:27.184Z,50.83
2019-01-31T14:55:58.804Z,47.10
2019-01-31T14:58:30.474Z,55.67
2019-01-31T15:01:02.075Z,61.00
2019-01-31T15:03:33.748Z,42.07
2019-01-31T15:06:05.367Z,42.53
2019-01-31T15:08:38.025Z,43.67
2019-01-31T15:11:09.756Z,50.70
2019-01-31T15:13:42.436Z,45.70
2019-01-31T15:16:14.077Z,45.00
2019-01-31T15:18:45.656Z,46.27
2019-01-31T15:21:17.337Z,43.27
2019-01-31T15:23:50.577Z,48.00
2019-01-31T15:26:22.197Z,43.47
2019-01-31T15:28:53.792Z,47.53
2019-01-31T15:31:25.395Z,48.03
2019-01-31T15:33:57.114Z,54.30
2019-01-31T15:36:28.772Z,49.73
2019-01-31T15:39:00.389Z,56.70
2019-01-31T15:41:33.407Z,44.37
2019-01-31T15:44:05.154Z,48.33
2019-01-31T15:46:36.866Z,46.67
2019-01-31T15:49:08.508Z,42.83
2019-01-31T15:51:40.163Z,45.40
2019-01-31T15:54:14.446Z,49.70
2019-01-31T15:56:47.078Z,45.50
2019-01-31T15:59:18.828Z,44.40
2019-01-31T16:01:50.557Z,48.00
2019-01-31T16:04:22.211Z,48.00
2019-01-31T16:06:53.854Z,50.87
2019-01-31T16:09:25.561Z,52.53
2019-01-31T16:11:59.732Z,50.80
2019-01-31T16:14:30.704Z,55.73
2019-01-31T16:17:02.385Z,53.70
2019-01-31T16:19:34.147Z,58.83
2019-01-31T16:22:06.613Z,48.17
2019-01-31T16:24:38.264Z,49.53
2019-01-31T16:27:09.834Z,45.23
2019-01-31T16:29:41.563Z,42.13
2019-01-31T16:32:13.715Z,47.60
2019-01-31T16:34:47.474Z,39.13
2019-01-31T16:37:19.159Z,42.57
2019-01-31T16:39:50.868Z,44.03
2019-01-31T16:42:22.511Z,42.40
2019-01-31T16:44:54.290Z,46.43
2019-01-31T16:47:27.527Z,42.93
2019-01-31T16:49:59.166Z,43.90
2019-01-31T16:52:30.883Z,48.33
2019-01-31T16:55:02.654Z,50.53
2019-01-31T16:57:34.380Z,48.80
2019-01-31T17:00:16.203Z,46.50
2019-01-31T17:02:47.879Z,56.47
2019-01-31T17:05:22.704Z,54.93
2019-01-31T17:07:54.419Z,47.77
2019-01-31T17:10:27.194Z,46.47
2019-01-31T17:12:58.889Z,49.17
2019-01-31T17:15:32.265Z,50.10
2019-01-31T17:18:03.934Z,47.80
2019-01-31T17:20:39.147Z,55.40
2019-01-31T17:23:10.855Z,47.90
2019-01-31T17:25:42.453Z,48.43
2019-01-31T17:28:14.100Z,50.87
2019-01-31T17:30:45.774Z,51.07
2019-01-31T17:33:17.366Z,53.23
2019-01-31T17:35:48.956Z,60.37
2019-01-31T17:38:20.619Z,55.93
2019-01-31T17:40:52.283Z,56.93
2019-01-31T17:43:23.863Z,63.47
2019-01-31T17:45:55.807Z,54.23
2019-01-31T17:48:27.436Z,57.03
2019-01-31T17:50:59.119Z,46.13
2019-01-31T17:53:30.851Z,54.47
2019-01-31T17:56:02.504Z,50.17
2019-01-31T17:58:35.227Z,50.60
2019-01-31T18:01:07.879Z,52.37
2019-01-31T18:03:39.464Z,61.20
2019-01-31T18:06:11.197Z,53.53
2019-01-31T18:08:42.955Z,50.57
2019-01-31T18:11:14.618Z,56.93
2019-01-31T18:13:46.277Z,54.37
2019-01-31T18:16:17.895Z,57.00
2019-01-31T18:18:49.550Z,53.63
2019-01-31T18:21:21.169Z,49.13
2019-01-31T18:23:52.779Z,54.27
2019-01-31T18:26:24.430Z,49.70
2019-01-31T18:28:56.031Z,57.33
2019-01-31T18:31:27.676Z,51.83
2019-01-31T18:33:59.344Z,59.53
2019-01-31T18:36:30.993Z,54.93
2019-01-31T18:39:03.083Z,54.70
2019-01-31T18:41:34.729Z,56.67
2019-01-31T18:44:06.386Z,52.67
2019-01-31T18:46:38.034Z,48.40
2019-01-31T18:49:09.680Z,56.03
2019-01-31T18:51:41.329Z,52.87
2019-01-31T18:54:15.719Z,49.97
2019-01-31T18:56:47.716Z,61.50
2019-01-31T18:59:19.296Z,53.47
2019-01-31T19:01:50.920Z,54.30
2019-01-31T19:04:22.709Z,48.40
2019-01-31T19:06:54.416Z,54.53
2019-01-31T19:09:26.106Z,59.50
2019-01-31T19:11:57.891Z,57.43
2019-01-31T19:14:29.561Z,60.30
2019-01-31T19:17:03.401Z,54.00
2019-01-31T19:19:35.345Z,63.67
2019-01-31T19:22:10.608Z,50.53
2019-01-31T19:24:43.717Z,58.50
2019-01-31T19:27:15.563Z,51.70
2019-01-31T19:29:47.420Z,53.57
2019-01-31T19:32:19.333Z,56.23
2019-01-31T19:34:51.013Z,62.70
2019-01-31T19:37:22.678Z,67.40
2019-01-31T19:39:54.400Z,67.73
2019-01-31T19:42:26.016Z,68.50
2019-01-31T19:44:58.579Z,77.77
2019-01-31T19:47:30.362Z,90.40
2019-01-31T19:50:01.993Z,99.07
2019-01-31T19:52:34.663Z,64.33
2019-01-31T19:55:17.912Z,55.00
2019-01-31T19:57:51.522Z,44.73
2019-01-31T20:00:27.298Z,55.80
2019-01-31T20:02:58.978Z,49.60
2019-01-31T20:05:32.133Z,57.83
2019-01-31T20:08:13.976Z,53.60
2019-01-31T20:10:48.050Z,48.57
2019-01-31T20:13:19.793Z,52.30
2019-01-31T20:15:51.603Z,47.77
2019-01-31T20:18:23.449Z,44.60
2019-01-31T20:20:55.134Z,50.80
2019-01-31T20:23:26.775Z,52.60
2019-01-31T20:25:58.476Z,53.27
2019-01-31T20:28:30.207Z,56.03
2019-01-31T20:31:01.829Z,49.80
2019-01-31T20:33:33.508Z,55.67
2019-01-31T20:36:05.253Z,57.10
2019-01-31T20:38:36.853Z,48.07
2019-01-31T20:41:08.477Z,59.87
2019-01-31T20:43:40.138Z,59.17
2019-01-31T20:46:11.806Z,54.60
2019-01-31T20:48:43.524Z,57.33
2019-01-31T20:51:15.181Z,51.97
2019-01-31T20:53:46.887Z,51.20
2019-01-31T20:56:18.698Z,58.17
2019-01-31T20:58:50.297Z,55.47
2019-01-31T21:01:22.018Z,57.23
2019-01-31T21:03:53.758Z,54.40
2019-01-31T21:06:25.402Z,51.77
2019-01-31T21:08:57.210Z,55.53
2019-01-31T21:11:28.886Z,54.27
2019-01-31T21:14:00.508Z,56.00
2019-01-31T21:16:32.177Z,53.70
2019-01-31T21:19:03.780Z,52.70
2019-01-31T21:21:35.436Z,46.70
2019-01-31T21:24:07.191Z,54.00
2019-01-31T21:26:38.936Z,52.60
2019-01-31T21:29:10.603Z,50.67
2019-01-31T21:31:44.261Z,53.20
2019-01-31T21:34:17.480Z,54.77
2019-01-31T21:36:49.355Z,48.03
2019-01-31T21:39:20.988Z,47.87
2019-01-31T21:41:52.673Z,56.50
2019-01-31T21:44:24.365Z,56.27
2019-01-31T21:47:02.793Z,53.60
2019-01-31T21:49:30.771Z,56.20
2019-01-31T21:52:02.389Z,54.50
2019-01-31T21:54:34.052Z,57.57
2019-01-31T21:57:05.714Z,58.00
2019-01-31T21:59:37.333Z,51.70
2019-01-31T22:02:09.060Z,57.50
2019-01-31T22:04:40.709Z,55.90
2019-01-31T22:07:12.364Z,47.00
2019-01-31T22:09:44.012Z,56.37
2019-01-31T22:12:15.663Z,49.63
2019-01-31T22:14:47.603Z,50.93
2019-01-31T22:17:19.309Z,48.97
2019-01-31T22:19:50.869Z,55.03
2019-01-31T22:22:22.492Z,54.83
2019-01-31T22:24:54.186Z,52.13
2019-01-31T22:27:25.850Z,49.13
2019-01-31T22:29:57.469Z,48.90
2019-01-31T22:32:29.129Z,49.77
2019-01-31T22:35:00.799Z,57.20
2019-01-31T22:37:32.620Z,46.77
2019-01-31T22:40:06.067Z,58.07
2019-01-31T22:42:37.787Z,45.57
2019-01-31T22:45:16.618Z,49.70
2019-01-31T22:47:48.230Z,49.53
2019-01-31T22:50:25.082Z,47.63
2019-01-31T22:52:56.752Z,51.37
2019-01-31T22:55:28.345Z,53.23
2019-01-31T22:58:00.029Z,49.40
2019-01-31T23:00:49.934Z,49.90
2019-01-31T23:03:21.621Z,46.90
2019-01-31T23:05:53.242Z,46.10
2019-01-31T23:08:24.933Z,51.97
2019-01-31T23:10:56.582Z,45.23
2019-01-31T23:13:28.239Z,43.63
2019-01-31T23:15:59.972Z,51.37
2019-01-31T23:18:31.564Z,45.80
2019-01-31T23:21:03.235Z,53.23
2019-01-31T23:23:34.815Z,56.50
2019-01-31T23:26:07.255Z,59.57
2019-01-31T23:28:38.937Z,58.87
2019-01-31T23:31:10.642Z,52.87
2019-01-31T23:33:42.258Z,57.57
2019-01-31T23:36:13.939Z,58.93
2019-01-31T23:38:45.579Z,52.30
2019-01-31T23:41:17.225Z,53.23
2019-01-31T23:43:48.873Z,50.50
2019-01-31T23:46:20.579Z,51.90
2019-01-31T23:48:52.199Z,50.53
2019-01-31T23:51:23.760Z,50.30
2019-01-31T23:53:55.512Z,47.83
2019-01-31T23:56:27.114Z,54.27
2019-01-31T23:58:58.696Z,55.47
